createdAt,value
2023-05-05T03:02:21.797Z,6.22
2023-05-05T03:04:53.329Z,7.18
2023-05-05T03:07:42.230Z,6.57
2023-05-05T03:10:12.193Z,6.93
2023-05-05T03:12:50.959Z,6.05
2023-05-05T03:15:19.814Z,7.53
2023-05-05T03:17:47.563Z,6.75
2023-05-05T03:20:15.124Z,6.90
2023-05-05T03:22:42.315Z,5.40
2023-05-05T03:25:09.590Z,8.20
2023-05-05T03:27:36.913Z,8.77
2023-05-05T03:30:04.498Z,6.85
2023-05-05T03:32:31.842Z,6.82
2023-05-05T03:34:59.069Z,6.68
2023-05-05T03:37:26.247Z,6.50
2023-05-05T03:39:53.419Z,6.85
2023-05-05T03:42:20.769Z,6.40
2023-05-05T03:44:47.965Z,6.32
2023-05-05T03:47:15.133Z,6.03
2023-05-05T03:49:42.418Z,6.15
2023-05-05T03:52:12.650Z,6.30
2023-05-05T03:54:42.500Z,8.07
2023-05-05T03:57:09.670Z,6.47
2023-05-05T03:59:36.826Z,6.88
2023-05-05T04:02:04.000Z,6.72
2023-05-05T04:04:31.337Z,6.55
2023-05-05T04:06:58.626Z,6.60
2023-05-05T04:09:25.851Z,6.45
2023-05-05T04:11:53.258Z,5.85
2023-05-05T04:14:20.551Z,5.82
2023-05-05T04:16:47.769Z,6.70
2023-05-05T04:19:15.023Z,6.47
2023-05-05T04:21:42.403Z,6.45
2023-05-05T04:24:09.797Z,6.22
2023-05-05T04:26:37.209Z,7.20
2023-05-05T04:29:04.536Z,8.15
2023-05-05T04:31:32.121Z,8.95
2023-05-05T04:33:59.422Z,14.07
2023-05-05T04:36:26.610Z,7.15
2023-05-05T04:38:53.885Z,7.70
2023-05-05T04:41:21.393Z,7.03
2023-05-05T04:43:48.757Z,7.20
2023-05-05T04:46:15.988Z,8.10
2023-05-05T04:48:43.185Z,7.20
2023-05-05T04:51:10.689Z,7.57
2023-05-05T04:53:37.870Z,7.65
2023-05-05T04:56:05.309Z,7.38
2023-05-05T04:58:32.629Z,8.10
2023-05-05T05:00:59.833Z,7.75
2023-05-05T05:03:27.152Z,7.78
2023-05-05T05:05:54.379Z,8.23
2023-05-05T05:08:21.573Z,7.13
2023-05-05T05:10:48.792Z,8.88
2023-05-05T05:13:16.093Z,8.98
2023-05-05T05:15:43.304Z,7.55
2023-05-05T05:18:10.528Z,8.50
2023-05-05T05:20:37.758Z,10.45
2023-05-05T05:23:05.108Z,7.47
2023-05-05T05:25:32.346Z,7.70
2023-05-05T05:28:09.334Z,7.43
2023-05-05T05:30:37.680Z,10.50
2023-05-05T05:33:05.055Z,7.57
2023-05-05T05:35:32.485Z,7.28
2023-05-05T05:37:59.674Z,6.88
2023-05-05T05:40:27.262Z,7.28
2023-05-05T05:42:54.343Z,7.65
2023-05-05T05:45:21.749Z,8.25
2023-05-05T05:47:49.429Z,8.10
2023-05-05T05:50:16.883Z,8.35
2023-05-05T05:52:44.134Z,8.15
2023-05-05T05:55:11.423Z,7.90
2023-05-05T05:57:39.535Z,6.93
2023-05-05T06:00:07.726Z,7.35
2023-05-05T06:02:35.571Z,7.43
2023-05-05T06:05:02.808Z,7.95
2023-05-05T06:07:30.045Z,8.57
2023-05-05T06:09:57.180Z,7.38
2023-05-05T06:12:24.383Z,6.40
2023-05-05T06:14:51.588Z,5.53
2023-05-05T06:17:18.730Z,4.68
2023-05-05T06:19:45.904Z,4.47
2023-05-05T06:22:13.074Z,4.40
2023-05-05T06:24:40.297Z,3.90
2023-05-05T06:27:07.502Z,3.58
2023-05-05T06:29:34.719Z,3.70
2023-05-05T06:32:01.976Z,3.20
2023-05-05T06:34:29.138Z,3.50
2023-05-05T06:36:56.343Z,3.10
2023-05-05T06:39:23.528Z,3.20
2023-05-05T06:41:50.710Z,3.22
2023-05-05T06:44:17.956Z,2.92
2023-05-05T06:46:45.286Z,3.45
2023-05-05T06:49:12.773Z,3.70
2023-05-05T06:51:41.535Z,3.15
2023-05-05T06:54:10.012Z,3.42
2023-05-05T06:56:37.168Z,3.83
2023-05-05T06:59:04.336Z,4.00
2023-05-05T07:01:31.555Z,3.55
2023-05-05T07:03:58.861Z,4.07
2023-05-05T07:06:26.183Z,3.60
2023-05-05T07:08:53.395Z,4.03
2023-05-05T07:11:20.909Z,4.10
2023-05-05T07:13:49.325Z,4.25
2023-05-05T07:16:16.527Z,3.40
2023-05-05T07:18:43.735Z,3.53
2023-05-05T07:21:10.938Z,4.05
2023-05-05T07:23:39.103Z,4.47
2023-05-05T07:26:06.410Z,3.78
2023-05-05T07:28:34.809Z,3.55
2023-05-05T07:31:02.085Z,3.22
2023-05-05T07:33:29.247Z,3.13
2023-05-05T07:35:56.505Z,3.20
2023-05-05T07:38:25.287Z,3.45
2023-05-05T07:40:52.472Z,2.75
2023-05-05T07:43:19.654Z,7.07
2023-05-05T07:45:46.849Z,2.80
2023-05-05T07:48:14.084Z,3.65
2023-05-05T07:50:41.340Z,4.63
2023-05-05T07:53:14.478Z,3.28
2023-05-05T07:55:42.501Z,3.20
2023-05-05T07:58:11.139Z,3.38
2023-05-05T08:00:39.431Z,3.93
2023-05-05T08:03:08.984Z,3.05
2023-05-05T08:05:38.425Z,2.90
2023-05-05T08:08:06.183Z,2.80
2023-05-05T08:10:33.364Z,2.60
2023-05-05T08:13:00.940Z,2.63
2023-05-05T08:15:28.239Z,2.50
2023-05-05T08:17:58.518Z,2.50
2023-05-05T08:20:28.688Z,2.60
2023-05-05T08:22:56.319Z,2.25
2023-05-05T08:25:24.185Z,2.40
2023-05-05T08:27:51.433Z,2.33
2023-05-05T08:30:20.936Z,3.13
2023-05-05T08:32:48.184Z,2.40
2023-05-05T08:35:15.401Z,2.40
2023-05-05T08:37:46.409Z,3.03
2023-05-05T08:40:14.288Z,2.95
2023-05-05T08:42:42.145Z,3.10
2023-05-05T08:45:10.767Z,2.17
2023-05-05T08:47:39.311Z,2.35
2023-05-05T08:50:09.916Z,2.38
2023-05-05T08:52:44.403Z,2.58
2023-05-05T08:55:21.291Z,2.60
2023-05-05T08:57:54.534Z,2.90
2023-05-05T09:00:22.295Z,2.92
2023-05-05T09:02:49.897Z,2.70
2023-05-05T09:05:18.143Z,2.38
2023-05-05T09:07:46.752Z,2.30
2023-05-05T09:10:14.007Z,2.85
2023-05-05T09:12:41.989Z,3.17
2023-05-05T09:15:14.354Z,2.75
2023-05-05T09:17:42.095Z,3.03
2023-05-05T09:20:14.212Z,3.33
2023-05-05T09:22:46.770Z,3.00
2023-05-05T09:25:16.048Z,2.67
2023-05-05T09:27:49.204Z,2.88
2023-05-05T09:30:26.964Z,3.40
2023-05-05T09:32:55.334Z,2.97
2023-05-05T09:35:23.436Z,3.00
2023-05-05T09:37:50.795Z,2.85
2023-05-05T09:40:19.862Z,3.60
2023-05-05T09:42:47.513Z,2.50
2023-05-05T09:45:17.531Z,3.25
2023-05-05T09:47:46.394Z,3.97
2023-05-05T09:50:21.455Z,3.05
2023-05-05T09:52:59.995Z,3.20
2023-05-05T09:55:27.469Z,3.20
2023-05-05T09:57:54.799Z,2.35
2023-05-05T10:00:22.471Z,3.80
2023-05-05T10:02:49.860Z,3.55
2023-05-05T10:05:18.612Z,3.60
2023-05-05T10:07:47.815Z,2.85
2023-05-05T10:10:18.422Z,3.28
2023-05-05T10:12:47.525Z,3.10
2023-05-05T10:15:16.435Z,3.28
2023-05-05T10:18:05.316Z,2.85
2023-05-05T10:20:36.245Z,3.92
2023-05-05T10:23:08.037Z,2.70
2023-05-05T10:25:43.499Z,3.58
2023-05-05T10:28:15.754Z,3.53
2023-05-05T10:30:46.301Z,4.18
2023-05-05T10:33:31.625Z,3.72
2023-05-05T10:36:02.489Z,3.20
2023-05-05T10:38:33.831Z,3.00
2023-05-05T10:41:02.162Z,3.50
2023-05-05T10:43:32.610Z,3.75
2023-05-05T10:46:00.708Z,3.67
2023-05-05T10:48:37.500Z,3.88
2023-05-05T10:51:35.272Z,3.60
2023-05-05T10:54:13.820Z,3.38
2023-05-05T10:56:42.803Z,3.63
2023-05-05T10:59:37.964Z,4.47
2023-05-05T11:02:23.520Z,3.97
2023-05-05T11:05:10.626Z,3.47
2023-05-05T11:07:38.375Z,3.40
2023-05-05T11:10:10.691Z,3.80
2023-05-05T11:13:10.622Z,3.58
2023-05-05T11:15:38.176Z,4.18
2023-05-05T11:18:07.914Z,3.80
2023-05-05T11:20:45.340Z,4.80
2023-05-05T11:23:14.512Z,4.30
2023-05-05T11:25:44.525Z,4.18
2023-05-05T11:28:13.706Z,3.58
2023-05-05T11:30:59.192Z,4.00
2023-05-05T11:33:31.140Z,3.58
2023-05-05T11:36:06.099Z,3.78
2023-05-05T11:38:55.605Z,3.47
2023-05-05T11:41:33.691Z,3.70
2023-05-05T11:44:13.901Z,3.47
2023-05-05T11:47:01.935Z,2.90
2023-05-05T11:49:39.440Z,3.40
2023-05-05T11:52:08.792Z,3.60
2023-05-05T11:54:38.303Z,3.60
2023-05-05T11:57:07.272Z,3.72
2023-05-05T11:59:55.424Z,2.78
2023-05-05T12:02:23.776Z,3.78
2023-05-05T12:04:51.414Z,4.60
2023-05-05T12:07:20.537Z,4.10
2023-05-05T12:09:48.936Z,4.45
2023-05-05T12:12:16.522Z,4.50
2023-05-05T12:14:51.502Z,4.30
2023-05-05T12:17:23.299Z,3.78
2023-05-05T12:19:55.180Z,4.13
2023-05-05T12:22:24.859Z,4.05
2023-05-05T12:24:55.459Z,3.58
2023-05-05T12:27:23.614Z,4.20
2023-05-05T12:29:51.705Z,4.03
2023-05-05T12:32:24.334Z,4.88
2023-05-05T12:34:57.387Z,5.00
2023-05-05T12:37:27.081Z,4.07
2023-05-05T12:39:55.130Z,4.78
2023-05-05T12:42:23.218Z,5.10
2023-05-05T12:44:50.615Z,3.83
2023-05-05T12:47:31.963Z,4.20
2023-05-05T12:50:00.798Z,4.20
2023-05-05T12:52:45.048Z,4.65
2023-05-05T12:55:12.613Z,3.70
2023-05-05T12:58:00.824Z,4.95
2023-05-05T13:00:29.263Z,4.93
2023-05-05T13:02:56.967Z,4.43
2023-05-05T13:05:31.856Z,4.47
2023-05-05T13:07:59.396Z,4.68
2023-05-05T13:10:28.070Z,4.90
2023-05-05T13:12:56.849Z,3.90
2023-05-05T13:15:24.942Z,4.70
2023-05-05T13:18:00.077Z,4.93
2023-05-05T13:20:27.530Z,5.55
2023-05-05T13:22:54.789Z,5.30
2023-05-05T13:25:21.965Z,5.47
2023-05-05T13:27:49.186Z,5.10
2023-05-05T13:30:16.413Z,6.07
2023-05-05T13:32:43.597Z,5.10
2023-05-05T13:35:11.707Z,5.72
2023-05-05T13:37:41.425Z,5.30
2023-05-05T13:40:09.365Z,4.97
2023-05-05T13:42:36.494Z,5.25
2023-05-05T13:45:04.037Z,5.22
2023-05-05T13:47:31.290Z,5.28
2023-05-05T13:49:58.518Z,5.32
2023-05-05T13:52:25.985Z,5.05
2023-05-05T13:54:53.384Z,4.47
2023-05-05T13:57:20.632Z,5.55
2023-05-05T13:59:47.791Z,5.40
2023-05-05T14:02:15.000Z,5.53
2023-05-05T14:04:42.174Z,5.25
2023-05-05T14:07:09.350Z,5.55
2023-05-05T14:09:36.641Z,5.05
2023-05-05T14:12:04.055Z,5.80
2023-05-05T14:14:31.297Z,5.97
2023-05-05T14:16:58.557Z,4.88
2023-05-05T14:19:25.860Z,4.90
2023-05-05T14:21:53.110Z,4.80
2023-05-05T14:24:20.310Z,5.40
2023-05-05T14:26:47.520Z,5.22
2023-05-05T14:29:14.726Z,5.38
2023-05-05T14:31:41.937Z,5.57
2023-05-05T14:34:09.088Z,5.68
2023-05-05T14:36:36.256Z,5.63
2023-05-05T14:39:03.468Z,5.60
2023-05-05T14:41:30.722Z,5.40
2023-05-05T14:43:59.114Z,5.00
2023-05-05T14:46:27.446Z,5.90
2023-05-05T14:48:54.773Z,4.70
2023-05-05T14:51:21.959Z,5.68
2023-05-05T14:53:49.212Z,5.13
2023-05-05T14:56:17.064Z,5.10
2023-05-05T14:58:44.296Z,5.15
2023-05-05T15:01:11.476Z,6.07
2023-05-05T15:03:38.815Z,5.53
2023-05-05T15:06:07.186Z,5.60
2023-05-05T15:08:34.580Z,5.38
2023-05-05T15:11:01.934Z,5.25
2023-05-05T15:13:29.751Z,5.45
2023-05-05T15:15:57.057Z,5.85
2023-05-05T15:18:24.591Z,5.63
2023-05-05T15:20:51.964Z,4.88
2023-05-05T15:23:19.177Z,5.72
2023-05-05T15:25:46.623Z,4.85
2023-05-05T15:28:13.848Z,6.07
2023-05-05T15:30:41.460Z,6.35
2023-05-05T15:33:08.632Z,5.30
2023-05-05T15:35:36.334Z,6.32
2023-05-05T15:38:03.661Z,5.30
2023-05-05T15:40:30.890Z,5.93
2023-05-05T15:42:58.173Z,6.03
2023-05-05T15:45:25.486Z,5.60
2023-05-05T15:47:53.637Z,5.40
2023-05-05T15:50:21.071Z,4.90
2023-05-05T15:52:49.798Z,5.93
2023-05-05T15:55:17.567Z,5.18
2023-05-05T15:57:44.859Z,4.90
2023-05-05T16:00:12.630Z,5.35
2023-05-05T16:02:40.064Z,5.10
2023-05-05T16:05:08.126Z,5.20
2023-05-05T16:07:35.635Z,5.13
2023-05-05T16:10:03.556Z,5.50
2023-05-05T16:12:30.822Z,6.10
2023-05-05T16:14:58.743Z,5.88
2023-05-05T16:17:26.108Z,6.25
2023-05-05T16:19:53.320Z,6.85
2023-05-05T16:22:21.000Z,6.07
2023-05-05T16:24:48.250Z,7.13
2023-05-05T16:27:15.531Z,6.75
2023-05-05T16:29:42.810Z,6.60
2023-05-05T16:32:09.991Z,5.50
2023-05-05T16:34:37.146Z,5.50
2023-05-05T16:37:04.328Z,5.05
2023-05-05T16:39:33.036Z,5.70
2023-05-05T16:42:00.349Z,5.60
2023-05-05T16:44:27.562Z,5.80
2023-05-05T16:46:54.746Z,6.00
2023-05-05T16:49:24.133Z,6.22
2023-05-05T16:51:53.442Z,6.38
2023-05-05T16:54:20.701Z,6.60
2023-05-05T16:56:47.875Z,6.63
2023-05-05T16:59:16.676Z,5.80
2023-05-05T17:01:43.857Z,6.25
2023-05-05T17:04:11.861Z,6.72
2023-05-05T17:06:39.117Z,5.85
2023-05-05T17:09:06.349Z,6.63
2023-05-05T17:11:33.498Z,5.85
2023-05-05T17:14:01.439Z,6.68
2023-05-05T17:16:28.819Z,5.80
2023-05-05T17:18:56.309Z,6.75
2023-05-05T17:21:23.672Z,6.63
2023-05-05T17:23:50.859Z,5.57
2023-05-05T17:26:18.061Z,5.68
2023-05-05T17:28:45.268Z,6.63
2023-05-05T17:31:12.575Z,6.50
2023-05-05T17:33:39.728Z,9.23
2023-05-05T17:36:07.272Z,5.40
2023-05-05T17:38:34.586Z,6.20
2023-05-05T17:41:02.062Z,5.82
2023-05-05T17:43:29.273Z,5.57
2023-05-05T17:45:56.554Z,5.20
2023-05-05T17:48:23.719Z,5.00
2023-05-05T17:50:50.926Z,5.00
2023-05-05T17:53:18.169Z,5.38
2023-05-05T17:55:46.121Z,6.65
2023-05-05T17:58:13.657Z,5.80
2023-05-05T18:00:40.964Z,7.22
2023-05-05T18:03:08.313Z,4.80
2023-05-05T18:05:35.686Z,4.47
2023-05-05T18:08:02.885Z,5.28
2023-05-05T18:10:30.118Z,5.60
2023-05-05T18:12:57.301Z,4.07
2023-05-05T18:15:24.610Z,3.85
2023-05-05T18:17:51.919Z,4.57
2023-05-05T18:20:19.288Z,5.40
2023-05-05T18:22:46.886Z,4.47
2023-05-05T18:25:14.093Z,4.28
2023-05-05T18:27:41.596Z,5.03
2023-05-05T18:30:09.141Z,4.90
2023-05-05T18:32:37.184Z,5.43
2023-05-05T18:35:04.753Z,4.95
2023-05-05T18:37:32.215Z,5.20
2023-05-05T18:39:59.410Z,5.40
2023-05-05T18:42:26.819Z,5.65
2023-05-05T18:44:53.982Z,6.28
2023-05-05T18:47:21.652Z,5.38
2023-05-05T18:49:49.757Z,6.60
2023-05-05T18:52:16.965Z,6.80
2023-05-05T18:54:44.202Z,6.55
2023-05-05T18:57:11.405Z,5.45
2023-05-05T18:59:38.630Z,4.60
2023-05-05T19:02:07.888Z,4.70
2023-05-05T19:04:37.825Z,4.88
2023-05-05T19:07:05.306Z,4.15
2023-05-05T19:09:32.761Z,4.22
2023-05-05T19:11:59.956Z,3.97
2023-05-05T19:14:27.233Z,4.18
2023-05-05T19:16:55.901Z,4.88
2023-05-05T19:19:23.269Z,4.40
2023-05-05T19:21:50.582Z,3.83
2023-05-05T19:24:17.743Z,5.00
2023-05-05T19:26:44.903Z,5.13
2023-05-05T19:29:12.755Z,4.75
2023-05-05T19:31:39.992Z,4.38
2023-05-05T19:34:07.372Z,4.88
2023-05-05T19:36:34.785Z,5.20
2023-05-05T19:39:03.421Z,5.15
2023-05-05T19:41:31.057Z,5.32
2023-05-05T19:43:58.336Z,6.47
2023-05-05T19:46:26.691Z,5.40
2023-05-05T19:48:54.024Z,5.70
2023-05-05T19:51:21.377Z,5.40
2023-05-05T19:53:48.678Z,6.03
2023-05-05T19:56:16.944Z,5.65
2023-05-05T19:59:05.039Z,5.03
2023-05-05T20:01:35.618Z,6.93
2023-05-05T20:04:06.041Z,5.53
2023-05-05T20:06:33.792Z,5.60
2023-05-05T20:09:01.878Z,5.70
2023-05-05T20:11:29.525Z,5.20
2023-05-05T20:13:57.175Z,6.55
2023-05-05T20:16:24.581Z,7.05
2023-05-05T20:18:51.792Z,6.25
2023-05-05T20:21:19.032Z,5.45
2023-05-05T20:23:47.310Z,6.38
2023-05-05T20:26:14.504Z,6.47
2023-05-05T20:28:44.826Z,5.80
2023-05-05T20:31:14.214Z,5.30
2023-05-05T20:33:41.598Z,5.60
2023-05-05T20:36:08.942Z,5.53
2023-05-05T20:38:36.186Z,5.47
2023-05-05T20:41:04.148Z,5.32
2023-05-05T20:43:31.342Z,5.38
2023-05-05T20:45:58.621Z,5.03
2023-05-05T20:48:25.782Z,5.22
2023-05-05T20:50:53.104Z,5.45
2023-05-05T20:53:20.990Z,5.30
2023-05-05T20:55:49.775Z,4.75
2023-05-05T20:58:17.060Z,5.45
